sensor_id;sensor_type;location;lat;lon;timestamp;P1;durP1;ratioP1;P2;durP2;ratioP2
67941;SDS011;54731;42.600;23.476;2024-01-15T00:00:38;13.30;;;5.27;;
67941;SDS011;54731;42.600;23.476;2024-01-15T00:03:04;13.25;;;5.72;;
67941;SDS011;54731;42.600;23.476;2024-01-15T00:05:29;14.40;;;5.93;;
67941;SDS011;54731;42.600;23.476;2024-01-15T00:07:54;15.20;;;5.47;;
67941;SDS011;54731;42.600;23.476;2024-01-15T00:10:20;16.97;;;7.53;;
67941;SDS011;54731;42.600;23.476;2024-01-15T00:12:45;12.17;;;5.30;;
67941;SDS011;54731;42.600;23.476;2024-01-15T00:15:10;12.10;;;5.40;;
67941;SDS011;54731;42.600;23.476;2024-01-15T00:17:36;8.50;;;4.97;;
67941;SDS011;54731;42.600;23.476;2024-01-15T00:20:01;7.83;;;4.00;;
67941;SDS011;54731;42.600;23.476;2024-01-15T00:22:26;9.67;;;3.90;;
67941;SDS011;54731;42.600;23.476;2024-01-15T00:24:52;16.40;;;6.90;;
67941;SDS011;54731;42.600;23.476;2024-01-15T00:27:17;15.60;;;6.63;;
67941;SDS011;54731;42.600;23.476;2024-01-15T00:29:42;13.90;;;5.63;;
67941;SDS011;54731;42.600;23.476;2024-01-15T00:32:08;11.43;;;4.80;;
67941;SDS011;54731;42.600;23.476;2024-01-15T00:34:33;9.63;;;5.35;;
67941;SDS011;54731;42.600;23.476;2024-01-15T00:36:58;21.98;;;11.13;;
67941;SDS011;54731;42.600;23.476;2024-01-15T00:39:24;17.73;;;7.63;;
67941;SDS011;54731;42.600;23.476;2024-01-15T00:41:49;19.97;;;9.53;;
67941;SDS011;54731;42.600;23.476;2024-01-15T00:44:14;12.23;;;5.43;;
67941;SDS011;54731;42.600;23.476;2024-01-15T00:46:43;13.33;;;5.53;;
67941;SDS011;54731;42.600;23.476;2024-01-15T00:49:09;11.60;;;4.65;;
67941;SDS011;54731;42.600;23.476;2024-01-15T00:51:34;15.50;;;7.30;;
67941;SDS011;54731;42.600;23.476;2024-01-15T00:53:59;17.93;;;8.50;;
67941;SDS011;54731;42.600;23.476;2024-01-15T00:56:25;17.13;;;7.23;;
67941;SDS011;54731;42.600;23.476;2024-01-15T00:58:50;12.73;;;5.57;;
67941;SDS011;54731;42.600;23.476;2024-01-15T01:01:15;9.83;;;4.80;;
67941;SDS011;54731;42.600;23.476;2024-01-15T01:03:41;13.97;;;6.00;;
67941;SDS011;54731;42.600;23.476;2024-01-15T01:06:06;13.68;;;4.80;;
67941;SDS011;54731;42.600;23.476;2024-01-15T01:08:31;14.73;;;6.07;;
67941;SDS011;54731;42.600;23.476;2024-01-15T01:10:56;11.33;;;4.50;;
67941;SDS011;54731;42.600;23.476;2024-01-15T01:13:22;14.97;;;4.47;;
67941;SDS011;54731;42.600;23.476;2024-01-15T01:15:47;11.43;;;6.50;;
67941;SDS011;54731;42.600;23.476;2024-01-15T01:18:13;15.85;;;5.60;;
67941;SDS011;54731;42.600;23.476;2024-01-15T01:20:38;18.47;;;7.10;;
67941;SDS011;54731;42.600;23.476;2024-01-15T01:23:03;13.83;;;6.67;;
67941;SDS011;54731;42.600;23.476;2024-01-15T01:25:29;14.30;;;4.90;;
67941;SDS011;54731;42.600;23.476;2024-01-15T01:27:54;15.20;;;5.60;;
67941;SDS011;54731;42.600;23.476;2024-01-15T01:30:19;14.07;;;5.17;;
67941;SDS011;54731;42.600;23.476;2024-01-15T01:32:44;48.50;;;17.93;;
67941;SDS011;54731;42.600;23.476;2024-01-15T01:35:10;21.20;;;6.37;;
67941;SDS011;54731;42.600;23.476;2024-01-15T01:37:35;17.10;;;5.73;;
67941;SDS011;54731;42.600;23.476;2024-01-15T01:40:00;12.68;;;4.47;;
67941;SDS011;54731;42.600;23.476;2024-01-15T01:42:26;12.02;;;5.30;;
67941;SDS011;54731;42.600;23.476;2024-01-15T01:44:51;13.33;;;5.40;;
67941;SDS011;54731;42.600;23.476;2024-01-15T01:47:16;14.63;;;5.23;;
67941;SDS011;54731;42.600;23.476;2024-01-15T01:49:42;16.13;;;5.10;;
67941;SDS011;54731;42.600;23.476;2024-01-15T01:52:07;10.40;;;5.03;;
67941;SDS011;54731;42.600;23.476;2024-01-15T01:54:34;15.20;;;5.28;;
67941;SDS011;54731;42.600;23.476;2024-01-15T01:57:02;11.82;;;4.88;;
67941;SDS011;54731;42.600;23.476;2024-01-15T01:59:28;13.73;;;5.72;;
67941;SDS011;54731;42.600;23.476;2024-01-15T02:01:55;16.60;;;6.05;;
67941;SDS011;54731;42.600;23.476;2024-01-15T02:04:21;13.03;;;6.03;;
67941;SDS011;54731;42.600;23.476;2024-01-15T02:06:48;19.10;;;5.70;;
67941;SDS011;54731;42.600;23.476;2024-01-15T02:09:13;14.90;;;5.88;;
67941;SDS011;54731;42.600;23.476;2024-01-15T02:11:39;17.83;;;5.47;;
67941;SDS011;54731;42.600;23.476;2024-01-15T02:14:04;12.70;;;5.70;;
67941;SDS011;54731;42.600;23.476;2024-01-15T02:16:29;16.27;;;6.37;;
67941;SDS011;54731;42.600;23.476;2024-01-15T02:18:54;14.00;;;6.07;;
67941;SDS011;54731;42.600;23.476;2024-01-15T02:21:20;18.17;;;5.53;;
67941;SDS011;54731;42.600;23.476;2024-01-15T02:23:45;16.33;;;6.17;;
67941;SDS011;54731;42.600;23.476;2024-01-15T02:26:10;10.53;;;5.60;;
67941;SDS011;54731;42.600;23.476;2024-01-15T02:28:37;16.02;;;5.25;;
67941;SDS011;54731;42.600;23.476;2024-01-15T02:31:02;11.67;;;5.23;;
67941;SDS011;54731;42.600;23.476;2024-01-15T02:33:27;9.40;;;4.80;;
67941;SDS011;54731;42.600;23.476;2024-01-15T02:35:53;11.70;;;4.78;;
67941;SDS011;54731;42.600;23.476;2024-01-15T02:38:18;11.60;;;4.97;;
67941;SDS011;54731;42.600;23.476;2024-01-15T02:40:44;10.60;;;4.40;;
67941;SDS011;54731;42.600;23.476;2024-01-15T02:43:10;11.82;;;4.60;;
67941;SDS011;54731;42.600;23.476;2024-01-15T02:45:35;13.37;;;4.87;;
67941;SDS011;54731;42.600;23.476;2024-01-15T02:48:01;13.73;;;5.00;;
67941;SDS011;54731;42.600;23.476;2024-01-15T02:50:26;14.95;;;5.35;;
67941;SDS011;54731;42.600;23.476;2024-01-15T02:52:52;11.87;;;3.87;;
67941;SDS011;54731;42.600;23.476;2024-01-15T02:55:17;13.47;;;4.90;;
67941;SDS011;54731;42.600;23.476;2024-01-15T02:57:42;16.07;;;4.60;;
67941;SDS011;54731;42.600;23.476;2024-01-15T03:00:08;8.70;;;3.57;;
67941;SDS011;54731;42.600;23.476;2024-01-15T03:02:36;12.57;;;3.90;;
67941;SDS011;54731;42.600;23.476;2024-01-15T03:05:02;9.23;;;3.47;;
67941;SDS011;54731;42.600;23.476;2024-01-15T03:07:29;8.10;;;3.42;;
67941;SDS011;54731;42.600;23.476;2024-01-15T03:09:55;9.27;;;3.00;;
67941;SDS011;54731;42.600;23.476;2024-01-15T03:12:20;9.07;;;3.03;;
67941;SDS011;54731;42.600;23.476;2024-01-15T03:14:46;10.17;;;2.87;;
67941;SDS011;54731;42.600;23.476;2024-01-15T03:17:11;11.43;;;4.27;;
67941;SDS011;54731;42.600;23.476;2024-01-15T03:19:36;7.30;;;3.15;;
67941;SDS011;54731;42.600;23.476;2024-01-15T03:22:01;5.93;;;3.03;;
67941;SDS011;54731;42.600;23.476;2024-01-15T03:24:27;9.97;;;3.80;;
67941;SDS011;54731;42.600;23.476;2024-01-15T03:26:52;12.50;;;4.10;;
67941;SDS011;54731;42.600;23.476;2024-01-15T03:29:18;15.43;;;3.80;;
67941;SDS011;54731;42.600;23.476;2024-01-15T03:31:43;9.60;;;3.63;;
67941;SDS011;54731;42.600;23.476;2024-01-15T03:34:08;10.93;;;4.00;;
67941;SDS011;54731;42.600;23.476;2024-01-15T03:36:33;9.57;;;4.03;;
67941;SDS011;54731;42.600;23.476;2024-01-15T03:38:59;10.37;;;4.47;;
67941;SDS011;54731;42.600;23.476;2024-01-15T03:41:24;14.77;;;4.90;;
67941;SDS011;54731;42.600;23.476;2024-01-15T03:43:49;12.50;;;4.17;;
67941;SDS011;54731;42.600;23.476;2024-01-15T03:46:15;10.27;;;3.83;;
67941;SDS011;54731;42.600;23.476;2024-01-15T03:48:40;12.83;;;4.67;;
67941;SDS011;54731;42.600;23.476;2024-01-15T03:51:05;11.27;;;4.63;;
67941;SDS011;54731;42.600;23.476;2024-01-15T03:53:30;10.13;;;4.47;;
67941;SDS011;54731;42.600;23.476;2024-01-15T03:55:56;11.03;;;5.03;;
67941;SDS011;54731;42.600;23.476;2024-01-15T03:58:21;16.37;;;5.33;;
67941;SDS011;54731;42.600;23.476;2024-01-15T04:00:46;15.60;;;4.43;;
67941;SDS011;54731;42.600;23.476;2024-01-15T04:03:12;14.55;;;5.13;;
67941;SDS011;54731;42.600;23.476;2024-01-15T04:05:37;10.10;;;4.97;;
67941;SDS011;54731;42.600;23.476;2024-01-15T04:08:03;15.47;;;5.63;;
67941;SDS011;54731;42.600;23.476;2024-01-15T04:10:29;14.95;;;5.40;;
67941;SDS011;54731;42.600;23.476;2024-01-15T04:12:54;15.33;;;5.90;;
67941;SDS011;54731;42.600;23.476;2024-01-15T04:15:19;11.80;;;4.87;;
67941;SDS011;54731;42.600;23.476;2024-01-15T04:17:44;13.57;;;4.93;;
67941;SDS011;54731;42.600;23.476;2024-01-15T04:20:10;13.30;;;4.60;;
67941;SDS011;54731;42.600;23.476;2024-01-15T04:22:35;10.65;;;4.85;;
67941;SDS011;54731;42.600;23.476;2024-01-15T04:25:01;14.83;;;4.63;;
67941;SDS011;54731;42.600;23.476;2024-01-15T04:27:27;10.67;;;4.77;;
67941;SDS011;54731;42.600;23.476;2024-01-15T04:29:52;12.27;;;4.37;;
67941;SDS011;54731;42.600;23.476;2024-01-15T04:32:17;11.48;;;4.88;;
67941;SDS011;54731;42.600;23.476;2024-01-15T04:34:43;16.23;;;4.27;;
67941;SDS011;54731;42.600;23.476;2024-01-15T04:37:08;17.53;;;4.90;;
67941;SDS011;54731;42.600;23.476;2024-01-15T04:39:33;10.70;;;4.80;;
67941;SDS011;54731;42.600;23.476;2024-01-15T04:41:59;15.43;;;4.63;;
67941;SDS011;54731;42.600;23.476;2024-01-15T04:44:24;11.80;;;4.30;;
67941;SDS011;54731;42.600;23.476;2024-01-15T04:46:49;15.83;;;4.67;;
67941;SDS011;54731;42.600;23.476;2024-01-15T04:49:14;21.50;;;9.77;;
67941;SDS011;54731;42.600;23.476;2024-01-15T04:51:40;17.83;;;7.37;;
67941;SDS011;54731;42.600;23.476;2024-01-15T04:54:05;16.35;;;5.85;;
67941;SDS011;54731;42.600;23.476;2024-01-15T04:56:30;13.23;;;4.93;;
67941;SDS011;54731;42.600;23.476;2024-01-15T04:58:56;11.57;;;5.27;;
67941;SDS011;54731;42.600;23.476;2024-01-15T05:01:21;12.90;;;5.50;;
67941;SDS011;54731;42.600;23.476;2024-01-15T05:03:46;16.43;;;4.43;;
67941;SDS011;54731;42.600;23.476;2024-01-15T05:06:12;8.83;;;4.00;;
67941;SDS011;54731;42.600;23.476;2024-01-15T05:08:37;13.37;;;5.03;;
67941;SDS011;54731;42.600;23.476;2024-01-15T05:11:02;10.87;;;4.60;;
67941;SDS011;54731;42.600;23.476;2024-01-15T05:13:28;11.63;;;4.97;;
67941;SDS011;54731;42.600;23.476;2024-01-15T05:15:53;9.48;;;3.22;;
67941;SDS011;54731;42.600;23.476;2024-01-15T05:18:18;14.07;;;4.60;;
67941;SDS011;54731;42.600;23.476;2024-01-15T05:20:44;14.00;;;4.90;;
67941;SDS011;54731;42.600;23.476;2024-01-15T05:23:09;12.90;;;4.50;;
67941;SDS011;54731;42.600;23.476;2024-01-15T05:25:35;11.70;;;4.20;;
67941;SDS011;54731;42.600;23.476;2024-01-15T05:28:00;9.90;;;3.97;;
67941;SDS011;54731;42.600;23.476;2024-01-15T05:30:26;15.85;;;7.43;;
67941;SDS011;54731;42.600;23.476;2024-01-15T05:32:51;26.93;;;13.43;;
67941;SDS011;54731;42.600;23.476;2024-01-15T05:35:17;28.83;;;12.47;;
67941;SDS011;54731;42.600;23.476;2024-01-15T05:37:43;26.90;;;11.45;;
67941;SDS011;54731;42.600;23.476;2024-01-15T05:40:09;26.30;;;11.32;;
67941;SDS011;54731;42.600;23.476;2024-01-15T05:42:35;21.25;;;9.52;;
67941;SDS011;54731;42.600;23.476;2024-01-15T05:45:00;25.07;;;12.57;;
67941;SDS011;54731;42.600;23.476;2024-01-15T05:47:25;40.83;;;14.63;;
67941;SDS011;54731;42.600;23.476;2024-01-15T05:49:51;46.30;;;17.83;;
67941;SDS011;54731;42.600;23.476;2024-01-15T05:52:16;38.63;;;16.00;;
67941;SDS011;54731;42.600;23.476;2024-01-15T05:54:41;35.33;;;13.93;;
67941;SDS011;54731;42.600;23.476;2024-01-15T05:57:06;25.40;;;11.90;;
67941;SDS011;54731;42.600;23.476;2024-01-15T05:59:32;29.58;;;13.43;;
67941;SDS011;54731;42.600;23.476;2024-01-15T06:01:57;26.27;;;12.10;;
67941;SDS011;54731;42.600;23.476;2024-01-15T06:04:22;32.97;;;13.33;;
67941;SDS011;54731;42.600;23.476;2024-01-15T06:06:48;17.97;;;8.67;;
67941;SDS011;54731;42.600;23.476;2024-01-15T06:09:13;18.03;;;9.07;;
67941;SDS011;54731;42.600;23.476;2024-01-15T06:11:38;25.67;;;14.47;;
67941;SDS011;54731;42.600;23.476;2024-01-15T06:14:04;26.00;;;13.47;;
67941;SDS011;54731;42.600;23.476;2024-01-15T06:16:29;17.85;;;8.38;;
67941;SDS011;54731;42.600;23.476;2024-01-15T06:18:55;21.42;;;8.85;;
67941;SDS011;54731;42.600;23.476;2024-01-15T06:21:20;30.60;;;13.03;;
67941;SDS011;54731;42.600;23.476;2024-01-15T06:23:45;22.13;;;10.93;;
67941;SDS011;54731;42.600;23.476;2024-01-15T06:26:13;20.10;;;9.70;;
67941;SDS011;54731;42.600;23.476;2024-01-15T06:28:39;16.95;;;9.25;;
67941;SDS011;54731;42.600;23.476;2024-01-15T06:31:05;20.80;;;8.67;;
67941;SDS011;54731;42.600;23.476;2024-01-15T06:33:31;20.38;;;8.60;;
67941;SDS011;54731;42.600;23.476;2024-01-15T06:35:57;19.07;;;8.43;;
67941;SDS011;54731;42.600;23.476;2024-01-15T06:38:22;21.97;;;7.80;;
67941;SDS011;54731;42.600;23.476;2024-01-15T06:40:47;21.50;;;9.63;;
67941;SDS011;54731;42.600;23.476;2024-01-15T06:43:13;16.83;;;6.50;;
67941;SDS011;54731;42.600;23.476;2024-01-15T06:45:38;15.65;;;6.00;;
67941;SDS011;54731;42.600;23.476;2024-01-15T06:48:04;18.73;;;7.25;;
67941;SDS011;54731;42.600;23.476;2024-01-15T06:50:29;36.03;;;12.33;;
67941;SDS011;54731;42.600;23.476;2024-01-15T06:52:55;20.50;;;7.40;;
67941;SDS011;54731;42.600;23.476;2024-01-15T06:55:20;14.90;;;7.85;;
67941;SDS011;54731;42.600;23.476;2024-01-15T06:57:45;20.77;;;9.30;;
67941;SDS011;54731;42.600;23.476;2024-01-15T07:00:11;21.87;;;8.57;;
67941;SDS011;54731;42.600;23.476;2024-01-15T07:02:36;49.53;;;21.23;;
67941;SDS011;54731;42.600;23.476;2024-01-15T07:05:02;28.20;;;13.40;;
67941;SDS011;54731;42.600;23.476;2024-01-15T07:07:27;26.45;;;12.55;;
67941;SDS011;54731;42.600;23.476;2024-01-15T07:09:53;29.07;;;13.20;;
67941;SDS011;54731;42.600;23.476;2024-01-15T07:12:18;31.63;;;13.63;;
67941;SDS011;54731;42.600;23.476;2024-01-15T07:14:43;28.93;;;12.40;;
67941;SDS011;54731;42.600;23.476;2024-01-15T07:17:08;33.60;;;13.57;;
67941;SDS011;54731;42.600;23.476;2024-01-15T07:19:34;64.30;;;21.97;;
67941;SDS011;54731;42.600;23.476;2024-01-15T07:21:59;87.37;;;22.60;;
67941;SDS011;54731;42.600;23.476;2024-01-15T07:24:24;57.97;;;17.40;;
67941;SDS011;54731;42.600;23.476;2024-01-15T07:26:49;32.13;;;12.07;;
67941;SDS011;54731;42.600;23.476;2024-01-15T07:29:15;31.50;;;11.27;;
67941;SDS011;54731;42.600;23.476;2024-01-15T07:31:40;61.77;;;25.93;;
67941;SDS011;54731;42.600;23.476;2024-01-15T07:34:05;56.90;;;24.90;;
67941;SDS011;54731;42.600;23.476;2024-01-15T07:36:31;81.50;;;27.97;;
67941;SDS011;54731;42.600;23.476;2024-01-15T07:38:56;78.77;;;29.27;;
67941;SDS011;54731;42.600;23.476;2024-01-15T07:41:21;87.50;;;30.87;;
67941;SDS011;54731;42.600;23.476;2024-01-15T07:43:47;121.47;;;52.57;;
67941;SDS011;54731;42.600;23.476;2024-01-15T07:46:12;127.80;;;49.83;;
67941;SDS011;54731;42.600;23.476;2024-01-15T07:48:37;119.20;;;44.67;;
67941;SDS011;54731;42.600;23.476;2024-01-15T07:51:03;106.93;;;43.00;;
67941;SDS011;54731;42.600;23.476;2024-01-15T07:53:28;106.93;;;42.47;;
67941;SDS011;54731;42.600;23.476;2024-01-15T07:55:53;112.40;;;42.07;;
67941;SDS011;54731;42.600;23.476;2024-01-15T07:58:19;119.57;;;46.90;;
67941;SDS011;54731;42.600;23.476;2024-01-15T08:00:44;156.93;;;55.17;;
67941;SDS011;54731;42.600;23.476;2024-01-15T08:03:10;68.67;;;28.63;;
67941;SDS011;54731;42.600;23.476;2024-01-15T08:05:36;71.07;;;27.27;;
67941;SDS011;54731;42.600;23.476;2024-01-15T08:08:01;58.40;;;23.73;;
67941;SDS011;54731;42.600;23.476;2024-01-15T08:10:28;42.83;;;18.02;;
67941;SDS011;54731;42.600;23.476;2024-01-15T08:12:53;36.57;;;15.53;;
67941;SDS011;54731;42.600;23.476;2024-01-15T08:15:20;30.07;;;12.00;;
67941;SDS011;54731;42.600;23.476;2024-01-15T08:17:45;25.58;;;11.90;;
67941;SDS011;54731;42.600;23.476;2024-01-15T08:20:11;23.33;;;9.57;;
67941;SDS011;54731;42.600;23.476;2024-01-15T08:22:38;36.30;;;12.63;;
67941;SDS011;54731;42.600;23.476;2024-01-15T08:25:03;43.38;;;14.43;;
67941;SDS011;54731;42.600;23.476;2024-01-15T08:27:29;161.93;;;56.87;;
67941;SDS011;54731;42.600;23.476;2024-01-15T08:29:54;131.97;;;49.87;;
67941;SDS011;54731;42.600;23.476;2024-01-15T08:32:19;65.27;;;27.87;;
67941;SDS011;54731;42.600;23.476;2024-01-15T08:34:45;50.50;;;21.87;;
67941;SDS011;54731;42.600;23.476;2024-01-15T08:37:10;63.80;;;23.60;;
67941;SDS011;54731;42.600;23.476;2024-01-15T08:39:35;45.13;;;17.42;;
67941;SDS011;54731;42.600;23.476;2024-01-15T08:42:01;55.00;;;20.53;;
67941;SDS011;54731;42.600;23.476;2024-01-15T08:44:26;38.50;;;15.27;;
67941;SDS011;54731;42.600;23.476;2024-01-15T08:46:51;27.60;;;10.77;;
67941;SDS011;54731;42.600;23.476;2024-01-15T08:49:16;52.17;;;19.70;;
67941;SDS011;54731;42.600;23.476;2024-01-15T08:51:42;62.17;;;24.73;;
67941;SDS011;54731;42.600;23.476;2024-01-15T08:54:07;60.57;;;25.70;;
67941;SDS011;54731;42.600;23.476;2024-01-15T08:56:32;64.03;;;28.50;;
67941;SDS011;54731;42.600;23.476;2024-01-15T08:58:58;62.93;;;30.43;;
67941;SDS011;54731;42.600;23.476;2024-01-15T09:01:23;79.00;;;33.75;;
67941;SDS011;54731;42.600;23.476;2024-01-15T09:03:48;82.70;;;34.92;;
67941;SDS011;54731;42.600;23.476;2024-01-15T09:06:14;91.57;;;39.50;;
67941;SDS011;54731;42.600;23.476;2024-01-15T09:08:39;125.77;;;46.27;;
67941;SDS011;54731;42.600;23.476;2024-01-15T09:11:04;131.80;;;50.00;;
67941;SDS011;54731;42.600;23.476;2024-01-15T09:13:30;148.50;;;49.57;;
67941;SDS011;54731;42.600;23.476;2024-01-15T09:15:55;114.60;;;41.33;;
67941;SDS011;54731;42.600;23.476;2024-01-15T09:18:20;109.20;;;41.03;;
67941;SDS011;54731;42.600;23.476;2024-01-15T09:20:46;85.10;;;35.38;;
67941;SDS011;54731;42.600;23.476;2024-01-15T09:23:11;82.90;;;33.10;;
67941;SDS011;54731;42.600;23.476;2024-01-15T09:25:36;96.57;;;39.70;;
67941;SDS011;54731;42.600;23.476;2024-01-15T09:28:01;87.80;;;37.40;;
67941;SDS011;54731;42.600;23.476;2024-01-15T09:30:27;58.70;;;25.17;;
67941;SDS011;54731;42.600;23.476;2024-01-15T09:32:52;65.10;;;27.20;;
67941;SDS011;54731;42.600;23.476;2024-01-15T09:35:18;52.40;;;22.83;;
67941;SDS011;54731;42.600;23.476;2024-01-15T09:37:43;73.33;;;32.40;;
67941;SDS011;54731;42.600;23.476;2024-01-15T09:40:08;63.10;;;26.90;;
67941;SDS011;54731;42.600;23.476;2024-01-15T09:42:37;45.05;;;19.42;;
67941;SDS011;54731;42.600;23.476;2024-01-15T09:45:03;46.60;;;23.50;;
67941;SDS011;54731;42.600;23.476;2024-01-15T09:47:29;51.05;;;23.48;;
67941;SDS011;54731;42.600;23.476;2024-01-15T09:49:54;50.28;;;24.45;;
67941;SDS011;54731;42.600;23.476;2024-01-15T09:52:20;34.93;;;17.87;;
67941;SDS011;54731;42.600;23.476;2024-01-15T09:54:46;33.50;;;16.67;;
67941;SDS011;54731;42.600;23.476;2024-01-15T09:57:12;33.17;;;15.97;;
67941;SDS011;54731;42.600;23.476;2024-01-15T09:59:37;21.73;;;10.37;;
67941;SDS011;54731;42.600;23.476;2024-01-15T10:02:03;23.05;;;11.48;;
67941;SDS011;54731;42.600;23.476;2024-01-15T10:04:30;22.38;;;10.55;;
67941;SDS011;54731;42.600;23.476;2024-01-15T10:06:55;22.50;;;9.87;;
67941;SDS011;54731;42.600;23.476;2024-01-15T10:09:22;24.80;;;11.32;;
67941;SDS011;54731;42.600;23.476;2024-01-15T10:11:48;43.20;;;16.47;;
67941;SDS011;54731;42.600;23.476;2024-01-15T10:14:13;41.53;;;17.10;;
67941;SDS011;54731;42.600;23.476;2024-01-15T10:16:39;28.60;;;13.77;;
67941;SDS011;54731;42.600;23.476;2024-01-15T10:19:04;39.80;;;18.38;;
67941;SDS011;54731;42.600;23.476;2024-01-15T10:21:31;57.03;;;24.53;;
67941;SDS011;54731;42.600;23.476;2024-01-15T10:23:57;72.15;;;33.25;;
67941;SDS011;54731;42.600;23.476;2024-01-15T10:26:25;68.68;;;30.30;;
67941;SDS011;54731;42.600;23.476;2024-01-15T10:28:51;56.73;;;25.10;;
67941;SDS011;54731;42.600;23.476;2024-01-15T10:31:16;45.92;;;22.52;;
67941;SDS011;54731;42.600;23.476;2024-01-15T10:33:42;50.83;;;22.73;;
67941;SDS011;54731;42.600;23.476;2024-01-15T10:36:07;57.63;;;25.47;;
67941;SDS011;54731;42.600;23.476;2024-01-15T10:38:34;74.10;;;34.38;;
67941;SDS011;54731;42.600;23.476;2024-01-15T10:41:01;71.22;;;31.30;;
67941;SDS011;54731;42.600;23.476;2024-01-15T10:43:26;57.73;;;26.67;;
67941;SDS011;54731;42.600;23.476;2024-01-15T10:45:52;58.30;;;26.10;;
67941;SDS011;54731;42.600;23.476;2024-01-15T10:48:18;55.03;;;23.50;;
67941;SDS011;54731;42.600;23.476;2024-01-15T10:50:44;64.35;;;28.52;;
67941;SDS011;54731;42.600;23.476;2024-01-15T10:53:11;81.88;;;38.58;;
67941;SDS011;54731;42.600;23.476;2024-01-15T10:55:37;119.73;;;48.67;;
67941;SDS011;54731;42.600;23.476;2024-01-15T10:58:03;103.88;;;40.53;;
67941;SDS011;54731;42.600;23.476;2024-01-15T11:00:29;94.35;;;37.45;;
67941;SDS011;54731;42.600;23.476;2024-01-15T11:02:55;100.32;;;39.97;;
67941;SDS011;54731;42.600;23.476;2024-01-15T11:05:21;121.60;;;47.45;;
67941;SDS011;54731;42.600;23.476;2024-01-15T11:07:47;124.45;;;47.88;;
67941;SDS011;54731;42.600;23.476;2024-01-15T11:13:20;117.63;;;47.33;;
67941;SDS011;54731;42.600;23.476;2024-01-15T11:15:57;124.93;;;44.63;;
67941;SDS011;54731;42.600;23.476;2024-01-15T11:18:26;129.50;;;48.58;;
67941;SDS011;54731;42.600;23.476;2024-01-15T11:23:46;109.60;;;45.85;;
67941;SDS011;54731;42.600;23.476;2024-01-15T11:26:31;103.60;;;44.60;;
67941;SDS011;54731;42.600;23.476;2024-01-15T11:28:57;82.45;;;35.22;;
67941;SDS011;54731;42.600;23.476;2024-01-15T11:31:56;94.65;;;38.40;;
67941;SDS011;54731;42.600;23.476;2024-01-15T11:34:12;110.63;;;45.20;;
67941;SDS011;54731;42.600;23.476;2024-01-15T11:41:55;145.80;;;59.03;;
67941;SDS011;54731;42.600;23.476;2024-01-15T11:44:24;106.28;;;45.97;;
67941;SDS011;54731;42.600;23.476;2024-01-15T11:47:00;106.97;;;48.70;;
67941;SDS011;54731;42.600;23.476;2024-01-15T11:52:18;62.35;;;32.50;;
67941;SDS011;54731;42.600;23.476;2024-01-15T11:57:30;137.25;;;56.15;;
67941;SDS011;54731;42.600;23.476;2024-01-15T12:00:10;136.13;;;55.30;;
67941;SDS011;54731;42.600;23.476;2024-01-15T12:02:36;132.47;;;55.43;;
67941;SDS011;54731;42.600;23.476;2024-01-15T12:05:01;98.68;;;47.72;;
67941;SDS011;54731;42.600;23.476;2024-01-15T12:07:27;127.17;;;56.87;;
67941;SDS011;54731;42.600;23.476;2024-01-15T12:09:52;111.47;;;57.03;;
67941;SDS011;54731;42.600;23.476;2024-01-15T12:12:21;83.13;;;38.23;;
67941;SDS011;54731;42.600;23.476;2024-01-15T12:14:52;131.55;;;54.85;;
67941;SDS011;54731;42.600;23.476;2024-01-15T12:17:18;132.63;;;54.67;;
67941;SDS011;54731;42.600;23.476;2024-01-15T12:19:43;142.45;;;58.67;;
67941;SDS011;54731;42.600;23.476;2024-01-15T12:22:09;139.73;;;60.33;;
67941;SDS011;54731;42.600;23.476;2024-01-15T12:24:34;154.70;;;66.53;;
67941;SDS011;54731;42.600;23.476;2024-01-15T12:26:59;150.67;;;63.70;;
67941;SDS011;54731;42.600;23.476;2024-01-15T12:29:25;139.20;;;54.87;;
67941;SDS011;54731;42.600;23.476;2024-01-15T12:31:50;133.13;;;53.30;;
67941;SDS011;54731;42.600;23.476;2024-01-15T12:34:17;99.67;;;42.67;;
67941;SDS011;54731;42.600;23.476;2024-01-15T12:36:42;76.38;;;34.78;;
67941;SDS011;54731;42.600;23.476;2024-01-15T12:39:11;70.63;;;33.20;;
67941;SDS011;54731;42.600;23.476;2024-01-15T12:41:36;72.47;;;33.88;;
67941;SDS011;54731;42.600;23.476;2024-01-15T12:44:02;57.15;;;28.38;;
67941;SDS011;54731;42.600;23.476;2024-01-15T12:46:28;64.47;;;28.30;;
67941;SDS011;54731;42.600;23.476;2024-01-15T12:48:55;63.53;;;30.10;;
67941;SDS011;54731;42.600;23.476;2024-01-15T12:51:24;57.70;;;29.52;;
67941;SDS011;54731;42.600;23.476;2024-01-15T12:53:50;61.80;;;27.07;;
67941;SDS011;54731;42.600;23.476;2024-01-15T12:56:15;59.97;;;27.07;;
67941;SDS011;54731;42.600;23.476;2024-01-15T12:58:40;62.10;;;28.77;;
67941;SDS011;54731;42.600;23.476;2024-01-15T13:01:06;67.20;;;29.63;;
67941;SDS011;54731;42.600;23.476;2024-01-15T13:03:31;65.97;;;31.37;;
67941;SDS011;54731;42.600;23.476;2024-01-15T13:05:56;54.40;;;25.57;;
67941;SDS011;54731;42.600;23.476;2024-01-15T13:08:22;53.00;;;27.20;;
67941;SDS011;54731;42.600;23.476;2024-01-15T13:10:47;76.13;;;35.40;;
67941;SDS011;54731;42.600;23.476;2024-01-15T13:13:12;54.07;;;26.10;;
67941;SDS011;54731;42.600;23.476;2024-01-15T13:15:37;44.10;;;23.20;;
67941;SDS011;54731;42.600;23.476;2024-01-15T13:18:03;39.13;;;17.97;;
67941;SDS011;54731;42.600;23.476;2024-01-15T13:20:28;29.08;;;13.55;;
67941;SDS011;54731;42.600;23.476;2024-01-15T13:22:54;38.53;;;16.63;;
67941;SDS011;54731;42.600;23.476;2024-01-15T13:25:19;44.33;;;20.50;;
67941;SDS011;54731;42.600;23.476;2024-01-15T13:27:44;56.23;;;25.10;;
67941;SDS011;54731;42.600;23.476;2024-01-15T13:30:10;60.23;;;26.90;;
67941;SDS011;54731;42.600;23.476;2024-01-15T13:32:35;57.55;;;25.50;;
67941;SDS011;54731;42.600;23.476;2024-01-15T13:35:01;61.63;;;29.13;;
67941;SDS011;54731;42.600;23.476;2024-01-15T13:37:26;17.93;;;8.13;;
67941;SDS011;54731;42.600;23.476;2024-01-15T13:39:52;7.80;;;3.83;;
67941;SDS011;54731;42.600;23.476;2024-01-15T13:42:17;15.88;;;5.75;;
67941;SDS011;54731;42.600;23.476;2024-01-15T13:44:43;11.57;;;3.97;;
67941;SDS011;54731;42.600;23.476;2024-01-15T13:47:08;43.40;;;13.07;;
67941;SDS011;54731;42.600;23.476;2024-01-15T13:49:33;48.17;;;13.93;;
67941;SDS011;54731;42.600;23.476;2024-01-15T13:51:59;11.60;;;4.30;;
67941;SDS011;54731;42.600;23.476;2024-01-15T13:54:24;43.07;;;15.30;;
67941;SDS011;54731;42.600;23.476;2024-01-15T13:56:49;48.83;;;18.07;;
67941;SDS011;54731;42.600;23.476;2024-01-15T13:59:15;134.13;;;40.37;;
67941;SDS011;54731;42.600;23.476;2024-01-15T14:01:40;50.23;;;17.87;;
67941;SDS011;54731;42.600;23.476;2024-01-15T14:04:07;52.65;;;19.42;;
67941;SDS011;54731;42.600;23.476;2024-01-15T14:06:32;57.20;;;22.77;;
67941;SDS011;54731;42.600;23.476;2024-01-15T14:08:57;45.17;;;21.80;;
67941;SDS011;54731;42.600;23.476;2024-01-15T14:11:22;17.90;;;13.07;;
67941;SDS011;54731;42.600;23.476;2024-01-15T14:13:48;69.18;;;20.88;;
67941;SDS011;54731;42.600;23.476;2024-01-15T14:16:13;56.88;;;32.05;;
67941;SDS011;54731;42.600;23.476;2024-01-15T14:18:38;25.60;;;14.70;;
67941;SDS011;54731;42.600;23.476;2024-01-15T14:21:04;9.37;;;6.40;;